Time;durP1;ratioP1;P1;durP2;ratioP2;P2;SDS_P1;SDS_P2;PMS_P1;PMS_P2;Temp;Humidity;BMP_temperature;BMP_pressure;BME280_temperature;BME280_humidity;BME280_pressure;Samples;Min_cycle;Max_cycle;Signal;HPM_P1;HPM_P2
2022/08/24 00:01:13;;;;;;;11.10;6.72;;;;;;;;;;4938544;29;20031;-77
2022/08/24 00:03:44;;;;;;;8.68;5.95;;;;;;;;;;4921040;29;20055;-73
2022/08/24 00:06:12;;;;;;;13.55;6.60;;;;;;;;;;4921433;29;20035;-76
2022/08/24 00:08:39;;;;;;;11.23;6.68;;;;;;;;;;4921615;29;20063;-75
2022/08/24 00:11:06;;;;;;;12.13;7.50;;;;;;;;;;4922336;29;20032;-78
2022/08/24 00:13:32;;;;;;;12.00;7.78;;;;;;;;;;4922095;29;20032;-75
2022/08/24 00:15:59;;;;;;;15.25;7.82;;;;;;;;;;4922201;29;20079;-81
2022/08/24 00:18:25;;;;;;;10.43;6.82;;;;;;;;;;4939417;29;20384;-78
2022/08/24 00:20:52;;;;;;;15.35;7.22;;;;;;;;;;4921656;29;20034;-74
2022/08/24 00:23:18;;;;;;;12.43;7.32;;;;;;;;;;4938774;29;20067;-76
2022/08/24 00:25:44;;;;;;;13.23;7.82;;;;;;;;;;4921246;29;20024;-77
2022/08/24 00:28:11;;;;;;;14.20;7.68;;;;;;;;;;4921725;29;20040;-80
2022/08/24 00:30:37;;;;;;;15.75;7.43;;;;;;;;;;4939216;29;20071;-78
2022/08/24 00:33:03;;;;;;;14.18;7.95;;;;;;;;;;4921927;29;20038;-80
2022/08/24 00:35:30;;;;;;;18.17;9.25;;;;;;;;;;4938908;29;20024;-74
2022/08/24 00:37:57;;;;;;;15.55;9.13;;;;;;;;;;4921345;29;20532;-74
2022/08/24 00:40:23;;;;;;;16.02;9.75;;;;;;;;;;4938769;29;20024;-81
2022/08/24 00:42:49;;;;;;;14.88;9.52;;;;;;;;;;4938856;29;20036;-78
2022/08/24 00:45:16;;;;;;;16.85;9.43;;;;;;;;;;4922008;29;20027;-81
2022/08/24 00:47:48;;;;;;;13.90;8.07;;;;;;;;;;4939258;29;20036;-79
2022/08/24 00:50:23;;;;;;;18.13;9.23;;;;;;;;;;4921403;29;20024;-75
2022/08/24 00:52:51;;;;;;;13.48;8.40;;;;;;;;;;4921323;29;20283;-78
2022/08/24 00:55:19;;;;;;;15.80;8.80;;;;;;;;;;4921713;29;20091;-74
2022/08/24 00:57:48;;;;;;;20.42;10.75;;;;;;;;;;4921812;29;20024;-74
2022/08/24 01:00:16;;;;;;;19.70;11.35;;;;;;;;;;4921306;29;20123;-78
2022/08/24 01:02:44;;;;;;;17.45;10.10;;;;;;;;;;4921023;29;20055;-78
2022/08/24 01:05:11;;;;;;;22.58;11.02;;;;;;;;;;4921468;29;20548;-79
2022/08/24 01:07:38;;;;;;;19.13;11.13;;;;;;;;;;4921266;29;20130;-76
2022/08/24 01:10:12;;;;;;;21.60;10.85;;;;;;;;;;4938166;29;20102;-80
2022/08/24 01:12:41;;;;;;;18.23;10.60;;;;;;;;;;4920263;29;20035;-73
2022/08/24 01:15:08;;;;;;;19.63;10.75;;;;;;;;;;4920641;29;20074;-78
2022/08/24 01:20:22;;;;;;;21.23;11.85;;;;;;;;;;4937620;29;20500;-74
2022/08/24 01:23:11;;;;;;;17.23;10.23;;;;;;;;;;4919885;29;20093;-73
2022/08/24 01:25:38;;;;;;;20.23;10.25;;;;;;;;;;4920726;29;20462;-80
2022/08/24 01:28:08;;;;;;;22.70;11.60;;;;;;;;;;4937631;29;20024;-78
2022/08/24 01:30:34;;;;;;;19.23;10.27;;;;;;;;;;4919949;29;20034;-76
2022/08/24 01:33:06;;;;;;;20.70;11.55;;;;;;;;;;4937088;29;20030;-78
2022/08/24 01:35:32;;;;;;;19.75;10.00;;;;;;;;;;4919714;29;20032;-74
2022/08/24 01:38:00;;;;;;;21.45;10.32;;;;;;;;;;4920046;29;20028;-73
2022/08/24 01:40:31;;;;;;;21.55;10.55;;;;;;;;;;4937267;29;20477;-79
2022/08/24 01:42:57;;;;;;;18.95;10.95;;;;;;;;;;4920935;29;20047;-78
2022/08/24 01:45:23;;;;;;;18.75;10.80;;;;;;;;;;4920620;29;20397;-81
2022/08/24 01:47:50;;;;;;;20.15;9.82;;;;;;;;;;4937790;29;20027;-75
2022/08/24 01:50:16;;;;;;;18.55;10.07;;;;;;;;;;4920390;29;20023;-79
2022/08/24 01:52:43;;;;;;;19.27;10.38;;;;;;;;;;4920055;29;20038;-78
2022/08/24 01:55:11;;;;;;;20.77;10.65;;;;;;;;;;4920198;29;20131;-79
2022/08/24 01:57:38;;;;;;;19.50;9.80;;;;;;;;;;4920038;29;20028;-82
2022/08/24 02:00:05;;;;;;;20.58;10.77;;;;;;;;;;4920637;29;20541;-77
2022/08/24 02:02:32;;;;;;;23.35;10.35;;;;;;;;;;4919946;29;20532;-73
2022/08/24 02:04:58;;;;;;;21.63;10.15;;;;;;;;;;4920086;29;20091;-77
2022/08/24 02:07:25;;;;;;;21.00;9.50;;;;;;;;;;4920514;29;20477;-79
2022/08/24 02:09:52;;;;;;;18.98;10.23;;;;;;;;;;4938131;29;20027;-82
2022/08/24 02:12:19;;;;;;;17.13;9.30;;;;;;;;;;4936788;29;20024;-78
2022/08/24 02:14:46;;;;;;;20.58;10.70;;;;;;;;;;4919978;29;20035;-79
2022/08/24 02:17:12;;;;;;;18.58;10.27;;;;;;;;;;4919837;29;20472;-82
2022/08/24 02:19:38;;;;;;;19.10;10.63;;;;;;;;;;4937485;29;20151;-78
2022/08/24 02:22:05;;;;;;;15.45;8.82;;;;;;;;;;4937008;29;20051;-81
2022/08/24 02:24:32;;;;;;;19.30;9.48;;;;;;;;;;4920172;29;20024;-77
2022/08/24 02:26:58;;;;;;;18.65;9.32;;;;;;;;;;4936518;29;20083;-78
2022/08/24 02:29:24;;;;;;;16.48;8.82;;;;;;;;;;4919733;29;20126;-74
2022/08/24 02:31:51;;;;;;;18.13;9.07;;;;;;;;;;4936619;29;20393;-78
2022/08/24 02:34:17;;;;;;;17.00;8.55;;;;;;;;;;4919726;29;20023;-78
2022/08/24 02:36:43;;;;;;;15.93;8.93;;;;;;;;;;4919176;29;20032;-77
2022/08/24 02:39:09;;;;;;;15.43;8.05;;;;;;;;;;4921967;29;20028;-74
2022/08/24 02:41:36;;;;;;;15.52;8.07;;;;;;;;;;4919770;29;20083;-82
2022/08/24 02:44:03;;;;;;;15.35;8.15;;;;;;;;;;4937091;29;20028;-78
2022/08/24 02:46:30;;;;;;;14.93;7.57;;;;;;;;;;4936721;29;20051;-72
2022/08/24 02:48:58;;;;;;;14.10;7.22;;;;;;;;;;4919855;29;20040;-79
2022/08/24 02:51:29;;;;;;;15.27;7.70;;;;;;;;;;4919849;29;20020;-74
2022/08/24 02:53:56;;;;;;;13.05;7.43;;;;;;;;;;4919379;29;20036;-77
2022/08/24 02:56:22;;;;;;;13.77;7.63;;;;;;;;;;4919973;29;20117;-78
2022/08/24 02:58:48;;;;;;;13.85;7.00;;;;;;;;;;4918872;29;20042;-73
2022/08/24 03:01:15;;;;;;;14.45;7.80;;;;;;;;;;4919396;29;20110;-80
2022/08/24 03:03:41;;;;;;;12.68;7.38;;;;;;;;;;4918769;29;20528;-76
2022/08/24 03:06:08;;;;;;;13.98;7.35;;;;;;;;;;4937409;29;20083;-78
2022/08/24 03:08:34;;;;;;;15.23;8.10;;;;;;;;;;4920476;29;20027;-78
2022/08/24 03:11:00;;;;;;;16.98;7.55;;;;;;;;;;4936159;29;20027;-80
2022/08/24 03:13:29;;;;;;;14.20;7.10;;;;;;;;;;4920723;29;20027;-78
2022/08/24 03:15:55;;;;;;;16.00;8.07;;;;;;;;;;4941051;29;20024;-75
2022/08/24 03:18:24;;;;;;;14.15;7.80;;;;;;;;;;4940128;29;20380;-79
2022/08/24 03:20:51;;;;;;;14.75;8.23;;;;;;;;;;4922681;29;20115;-79
2022/08/24 03:23:17;;;;;;;14.73;7.18;;;;;;;;;;4940674;29;20032;-79
2022/08/24 03:25:43;;;;;;;13.30;7.53;;;;;;;;;;4925584;29;20465;-79
2022/08/24 03:28:11;;;;;;;16.02;7.90;;;;;;;;;;4925293;29;20437;-82
2022/08/24 03:30:37;;;;;;;13.45;6.70;;;;;;;;;;4940598;29;20454;-79
2022/08/24 03:33:05;;;;;;;12.65;7.45;;;;;;;;;;4922787;29;20115;-74
2022/08/24 03:35:31;;;;;;;14.32;7.95;;;;;;;;;;4922676;29;20027;-77
2022/08/24 03:37:57;;;;;;;13.20;7.60;;;;;;;;;;4940589;29;20366;-75
2022/08/24 03:40:24;;;;;;;14.07;7.68;;;;;;;;;;4922947;29;20025;-82
2022/08/24 03:42:50;;;;;;;14.82;7.50;;;;;;;;;;4941096;29;20169;-79
2022/08/24 03:45:16;;;;;;;15.10;7.63;;;;;;;;;;4922222;29;20027;-75
2022/08/24 03:47:44;;;;;;;13.23;7.63;;;;;;;;;;4939627;29;20035;-78
2022/08/24 03:50:11;;;;;;;14.40;8.05;;;;;;;;;;4922280;29;20094;-79
2022/08/24 03:52:37;;;;;;;14.15;7.60;;;;;;;;;;4922715;29;20027;-82
2022/08/24 03:55:05;;;;;;;15.57;7.32;;;;;;;;;;4939929;29;20031;-75
2022/08/24 03:57:31;;;;;;;14.35;7.65;;;;;;;;;;4924763;29;20469;-75
2022/08/24 03:59:57;;;;;;;13.90;7.20;;;;;;;;;;4922520;29;20026;-79
2022/08/24 04:02:23;;;;;;;16.52;7.50;;;;;;;;;;4922343;29;20094;-78
2022/08/24 04:04:50;;;;;;;14.15;7.50;;;;;;;;;;4922505;29;20032;-77
2022/08/24 04:07:16;;;;;;;12.85;7.00;;;;;;;;;;4922567;29;20036;-75
2022/08/24 04:09:43;;;;;;;13.43;7.40;;;;;;;;;;4922761;29;20023;-82
2022/08/24 04:12:09;;;;;;;12.48;6.50;;;;;;;;;;4922120;29;20027;-73
2022/08/24 04:14:35;;;;;;;11.80;5.82;;;;;;;;;;4938979;29;20051;-79
2022/08/24 04:17:03;;;;;;;10.43;5.70;;;;;;;;;;4921989;29;20031;-73
2022/08/24 04:19:29;;;;;;;13.75;6.43;;;;;;;;;;4939149;29;20023;-75
2022/08/24 04:21:58;;;;;;;10.40;5.63;;;;;;;;;;4921364;29;20047;-75
2022/08/24 04:24:24;;;;;;;9.90;5.40;;;;;;;;;;4938864;29;20027;-79
2022/08/24 04:26:50;;;;;;;11.15;5.97;;;;;;;;;;4920589;29;20034;-74
2022/08/24 04:29:18;;;;;;;10.70;5.90;;;;;;;;;;4921019;29;20115;-74
2022/08/24 04:31:44;;;;;;;10.27;5.55;;;;;;;;;;4938830;29;20035;-77
2022/08/24 04:34:11;;;;;;;9.48;4.85;;;;;;;;;;4921805;29;20055;-77
2022/08/24 04:36:37;;;;;;;11.30;5.10;;;;;;;;;;4921953;29;20634;-76
2022/08/24 04:39:04;;;;;;;11.50;5.53;;;;;;;;;;4939054;29;20103;-76
2022/08/24 04:41:30;;;;;;;10.25;5.20;;;;;;;;;;4921869;29;20437;-76
2022/08/24 04:43:56;;;;;;;9.05;5.00;;;;;;;;;;4921556;29;20023;-77
2022/08/24 04:46:22;;;;;;;8.07;4.50;;;;;;;;;;4921474;29;20038;-76
2022/08/24 04:48:49;;;;;;;8.75;4.55;;;;;;;;;;4922213;29;20032;-76
2022/08/24 04:51:16;;;;;;;8.40;4.35;;;;;;;;;;4921149;29;20031;-76
2022/08/24 04:53:43;;;;;;;9.82;4.32;;;;;;;;;;4921042;29;20086;-77
2022/08/24 04:56:11;;;;;;;6.80;4.05;;;;;;;;;;4921020;29;20034;-76
2022/08/24 04:58:38;;;;;;;9.07;4.65;;;;;;;;;;4921261;29;20064;-76
2022/08/24 05:01:09;;;;;;;13.52;5.18;;;;;;;;;;4921500;29;20032;-77
2022/08/24 05:03:35;;;;;;;8.70;5.22;;;;;;;;;;4919909;29;20496;-76
2022/08/24 05:06:01;;;;;;;9.00;4.95;;;;;;;;;;4920115;29;20515;-76
2022/08/24 05:08:27;;;;;;;10.20;4.25;;;;;;;;;;4920449;29;20137;-75
2022/08/24 05:10:54;;;;;;;11.82;4.97;;;;;;;;;;4919964;29;20480;-77
2022/08/24 05:13:20;;;;;;;10.02;5.22;;;;;;;;;;4937487;29;20027;-75
2022/08/24 05:15:47;;;;;;;8.45;4.45;;;;;;;;;;4937364;29;20039;-75
2022/08/24 05:18:15;;;;;;;7.30;4.15;;;;;;;;;;4920127;29;20059;-79
2022/08/24 05:20:44;;;;;;;9.82;4.45;;;;;;;;;;4937284;29;20050;-77
2022/08/24 05:23:10;;;;;;;8.27;4.32;;;;;;;;;;4936951;29;20024;-76
2022/08/24 05:25:37;;;;;;;8.30;4.20;;;;;;;;;;4936997;29;20032;-76
2022/08/24 05:28:04;;;;;;;8.48;3.83;;;;;;;;;;4919862;29;20042;-75
2022/08/24 05:30:30;;;;;;;7.35;3.58;;;;;;;;;;4919884;29;20098;-76
2022/08/24 05:32:56;;;;;;;7.63;3.80;;;;;;;;;;4920276;29;20023;-73
2022/08/24 05:35:22;;;;;;;6.97;3.03;;;;;;;;;;4938247;29;20031;-80
2022/08/24 05:37:48;;;;;;;8.48;3.38;;;;;;;;;;4920049;29;20027;-77
2022/08/24 05:40:16;;;;;;;6.90;2.67;;;;;;;;;;4921148;29;20035;-83
2022/08/24 05:42:42;;;;;;;5.72;2.80;;;;;;;;;;4921421;29;20043;-82
2022/08/24 05:45:09;;;;;;;6.03;2.90;;;;;;;;;;4920745;29;20031;-78
2022/08/24 05:47:35;;;;;;;5.13;2.83;;;;;;;;;;4921806;29;20071;-81
2022/08/24 05:50:02;;;;;;;5.10;2.63;;;;;;;;;;4922882;29;20496;-82
2022/08/24 05:52:29;;;;;;;7.80;2.60;;;;;;;;;;4917609;29;20034;-78
2022/08/24 05:54:56;;;;;;;6.45;2.90;;;;;;;;;;4917301;29;20028;-81
2022/08/24 05:57:23;;;;;;;11.27;3.15;;;;;;;;;;4932208;29;20020;-79
2022/08/24 05:59:49;;;;;;;5.15;2.45;;;;;;;;;;4916883;29;20438;-82
2022/08/24 06:02:16;;;;;;;5.78;3.38;;;;;;;;;;4919084;29;20504;-78
2022/08/24 06:04:43;;;;;;;8.10;2.38;;;;;;;;;;4920269;29;20048;-81
2022/08/24 06:07:10;;;;;;;5.20;2.28;;;;;;;;;;4920796;29;20388;-88
2022/08/24 06:09:37;;;;;;;5.00;2.97;;;;;;;;;;4919996;29;20027;-80
2022/08/24 06:12:04;;;;;;;8.05;2.67;;;;;;;;;;4919997;29;20028;-76
2022/08/24 06:14:31;;;;;;;4.30;2.50;;;;;;;;;;4937190;29;20045;-79
2022/08/24 06:16:57;;;;;;;4.65;2.60;;;;;;;;;;4919791;29;20034;-82
2022/08/24 06:19:25;;;;;;;6.78;2.60;;;;;;;;;;4920180;29;20079;-75
2022/08/24 06:21:52;;;;;;;5.68;2.85;;;;;;;;;;4937418;29;20035;-80
2022/08/24 06:27:19;;;;;;;6.80;2.70;;;;;;;;;;4920333;29;20499;-78
2022/08/24 06:27:20;;;;;;;5.07;2.70;;;;;;;;;;4938310;29;20032;-76
2022/08/24 06:29:47;;;;;;;7.43;3.15;;;;;;;;;;4931230;29;20024;-77
2022/08/24 06:32:13;;;;;;;7.38;2.83;;;;;;;;;;4919834;29;20027;-78
2022/08/24 06:34:39;;;;;;;6.80;3.00;;;;;;;;;;4920161;29;20035;-81
2022/08/24 06:37:05;;;;;;;5.72;2.88;;;;;;;;;;4936590;29;20059;-78
2022/08/24 06:39:31;;;;;;;5.43;2.58;;;;;;;;;;4919642;29;20027;-79
2022/08/24 06:41:58;;;;;;;6.32;2.75;;;;;;;;;;4936483;29;20047;-75
2022/08/24 06:44:24;;;;;;;5.65;2.65;;;;;;;;;;4919539;29;20059;-75
2022/08/24 06:46:51;;;;;;;5.00;2.97;;;;;;;;;;4920016;29;20027;-77
2022/08/24 06:49:17;;;;;;;5.45;2.90;;;;;;;;;;4912416;29;20035;-79
2022/08/24 06:51:44;;;;;;;4.78;2.78;;;;;;;;;;4922629;29;20106;-76
2022/08/24 06:54:10;;;;;;;5.80;3.10;;;;;;;;;;4936718;29;20031;-82
2022/08/24 06:56:37;;;;;;;6.25;3.22;;;;;;;;;;4920104;29;20380;-76
2022/08/24 06:59:03;;;;;;;5.75;3.10;;;;;;;;;;4919840;29;20105;-77
2022/08/24 07:01:30;;;;;;;6.20;3.25;;;;;;;;;;4919506;29;20067;-79
2022/08/24 07:03:56;;;;;;;7.30;3.45;;;;;;;;;;4918977;29;20497;-40
2022/08/24 07:06:23;;;;;;;6.90;3.30;;;;;;;;;;4918216;29;20032;-41
2022/08/24 07:08:50;;;;;;;10.15;2.97;;;;;;;;;;4918166;29;20386;-42
2022/08/24 07:11:17;;;;;;;4.10;2.70;;;;;;;;;;4918855;29;20040;-39
2022/08/24 07:13:45;;;;;;;5.97;3.42;;;;;;;;;;4919474;29;20027;-46
2022/08/24 07:16:11;;;;;;;11.30;3.35;;;;;;;;;;4918897;29;20020;-42
2022/08/24 07:18:37;;;;;;;7.55;2.78;;;;;;;;;;4936367;29;20405;-43
2022/08/24 07:21:05;;;;;;;5.55;3.47;;;;;;;;;;4918875;29;20477;-45
2022/08/24 07:23:31;;;;;;;8.40;3.53;;;;;;;;;;4936222;29;20027;-42
2022/08/24 07:26:04;;;;;;;5.65;3.42;;;;;;;;;;4936541;29;20031;-41
2022/08/24 07:28:30;;;;;;;5.40;3.00;;;;;;;;;;4919616;29;20027;-77
2022/08/24 07:30:56;;;;;;;8.10;3.35;;;;;;;;;;4919073;29;20036;-75
2022/08/24 07:33:23;;;;;;;6.32;3.22;;;;;;;;;;4919520;29;20426;-77
2022/08/24 07:35:49;;;;;;;8.15;3.25;;;;;;;;;;4936340;29;20110;-74
2022/08/24 07:38:15;;;;;;;5.20;3.25;;;;;;;;;;4936032;29;20417;-74
2022/08/24 07:40:46;;;;;;;5.78;3.15;;;;;;;;;;4918989;29;20028;-74
2022/08/24 07:43:12;;;;;;;6.32;3.35;;;;;;;;;;4936181;29;20405;-76
2022/08/24 07:45:41;;;;;;;8.10;3.40;;;;;;;;;;4919040;29;20036;-75
2022/08/24 07:48:07;;;;;;;5.25;3.47;;;;;;;;;;4919041;29;20024;-74
2022/08/24 07:50:33;;;;;;;6.28;3.60;;;;;;;;;;4918760;29;20079;-85
2022/08/24 07:52:59;;;;;;;6.03;3.42;;;;;;;;;;4918897;29;20092;-78
2022/08/24 07:55:26;;;;;;;10.40;3.55;;;;;;;;;;4919262;29;20039;-76
2022/08/24 07:57:52;;;;;;;8.18;3.90;;;;;;;;;;4918751;29;20027;-70
2022/08/24 08:00:18;;;;;;;5.97;3.40;;;;;;;;;;4935977;29;20032;-75
2022/08/24 08:02:49;;;;;;;6.70;3.92;;;;;;;;;;4921919;29;20051;-83
2022/08/24 08:05:17;;;;;;;8.73;3.95;;;;;;;;;;4906662;29;20043;-76
2022/08/24 08:07:43;;;;;;;8.15;3.53;;;;;;;;;;4922069;29;20024;-76
2022/08/24 08:10:10;;;;;;;5.20;3.25;;;;;;;;;;4939428;29;20032;-76
2022/08/24 08:12:36;;;;;;;8.15;3.85;;;;;;;;;;4939849;29;20074;-76
2022/08/24 08:15:02;;;;;;;5.80;3.58;;;;;;;;;;4921809;29;20039;-75
2022/08/24 08:17:28;;;;;;;6.55;3.70;;;;;;;;;;4921996;29;20075;-76
2022/08/24 08:19:54;;;;;;;5.07;3.10;;;;;;;;;;4921891;29;20433;-73
2022/08/24 08:25:08;;;;;;;6.90;3.50;;;;;;;;;;4938308;29;20087;-75
2022/08/24 08:27:35;;;;;;;7.60;3.38;;;;;;;;;;4921586;29;20024;-74
2022/08/24 08:30:01;;;;;;;7.45;3.60;;;;;;;;;;4921928;29;20034;-75
2022/08/24 08:32:27;;;;;;;6.45;3.55;;;;;;;;;;4921943;29;20035;-74
2022/08/24 08:34:53;;;;;;;9.65;3.17;;;;;;;;;;4921964;29;20024;-72
2022/08/24 08:37:20;;;;;;;5.88;3.67;;;;;;;;;;4921463;29;20547;-87
2022/08/24 08:39:46;;;;;;;9.57;3.53;;;;;;;;;;4922086;29;20028;-80
2022/08/24 08:42:16;;;;;;;5.43;3.30;;;;;;;;;;4938709;29;20068;-77
2022/08/24 08:44:45;;;;;;;8.25;3.67;;;;;;;;;;4921534;29;20083;-74
2022/08/24 08:47:17;;;;;;;4.93;3.20;;;;;;;;;;4938671;29;20035;-77
2022/08/24 08:49:52;;;;;;;7.13;3.95;;;;;;;;;;4939102;29;20031;-74
2022/08/24 08:52:30;;;;;;;6.22;3.53;;;;;;;;;;4938639;29;20070;-76
2022/08/24 08:55:02;;;;;;;5.88;3.80;;;;;;;;;;4921525;29;20024;-75
2022/08/24 08:57:39;;;;;;;5.72;3.30;;;;;;;;;;4921438;29;20400;-76
2022/08/24 09:00:17;;;;;;;7.03;4.00;;;;;;;;;;4921899;29;20032;-76
2022/08/24 09:02:43;;;;;;;6.18;3.83;;;;;;;;;;4921205;29;20044;-74
2022/08/24 09:05:09;;;;;;;5.93;3.80;;;;;;;;;;4921598;29;20102;-77
2022/08/24 09:07:44;;;;;;;6.20;3.47;;;;;;;;;;4921260;29;20098;-75
2022/08/24 09:10:29;;;;;;;5.00;3.53;;;;;;;;;;4917237;29;20063;-73
2022/08/24 09:13:14;;;;;;;6.85;3.65;;;;;;;;;;4938537;29;20477;-73
2022/08/24 09:15:43;;;;;;;9.23;3.95;;;;;;;;;;4938061;29;20039;-73
2022/08/24 09:18:29;;;;;;;5.85;3.90;;;;;;;;;;4920256;29;20123;-73
2022/08/24 09:21:01;;;;;;;6.72;4.03;;;;;;;;;;4920332;29;20028;-72
2022/08/24 09:23:46;;;;;;;8.88;3.58;;;;;;;;;;4937438;29;20031;-71
2022/08/24 09:26:27;;;;;;;6.13;3.90;;;;;;;;;;4920257;29;20031;-73
2022/08/24 09:28:54;;;;;;;6.25;4.00;;;;;;;;;;4917503;29;20099;-72
2022/08/24 09:31:32;;;;;;;6.40;4.13;;;;;;;;;;4901049;29;20473;-75
2022/08/24 09:34:01;;;;;;;6.97;4.20;;;;;;;;;;4900714;29;20043;-77
2022/08/24 09:36:42;;;;;;;6.75;3.88;;;;;;;;;;4918324;29;20417;-75
2022/08/24 09:39:29;;;;;;;6.53;3.60;;;;;;;;;;4901284;29;20028;-77
2022/08/24 09:41:55;;;;;;;8.13;4.13;;;;;;;;;;4917175;29;20046;-75
2022/08/24 09:44:40;;;;;;;17.20;4.00;;;;;;;;;;4901603;29;20031;-72
2022/08/24 09:47:19;;;;;;;13.55;4.25;;;;;;;;;;4901073;29;20127;-71
2022/08/24 09:49:55;;;;;;;8.48;4.40;;;;;;;;;;4901292;29;20036;-75
2022/08/24 09:52:39;;;;;;;12.50;4.07;;;;;;;;;;4918703;29;20510;-77
2022/08/24 09:55:19;;;;;;;7.00;4.30;;;;;;;;;;4918418;29;20028;-78
2022/08/24 09:58:03;;;;;;;7.32;3.90;;;;;;;;;;4900687;29;20145;-75
2022/08/24 10:00:33;;;;;;;8.00;4.03;;;;;;;;;;4901256;29;20505;-73
2022/08/24 10:03:11;;;;;;;7.43;4.07;;;;;;;;;;4920203;29;20124;-76
2022/08/24 10:05:40;;;;;;;8.55;4.45;;;;;;;;;;4920199;29;20028;-78
2022/08/24 10:08:18;;;;;;;7.20;4.20;;;;;;;;;;4937003;29;20035;-74
2022/08/24 10:10:51;;;;;;;9.75;3.75;;;;;;;;;;4920067;29;20081;-77
2022/08/24 10:13:29;;;;;;;7.28;4.03;;;;;;;;;;4920429;29;20083;-74
2022/08/24 10:16:02;;;;;;;6.30;3.70;;;;;;;;;;4923104;29;20035;-78
2022/08/24 10:18:38;;;;;;;9.70;4.22;;;;;;;;;;4937107;29;20032;-74
2022/08/24 10:21:04;;;;;;;7.05;4.10;;;;;;;;;;4936629;29;20054;-74
2022/08/24 10:23:33;;;;;;;9.65;4.15;;;;;;;;;;4919518;29;20027;-76
2022/08/24 10:26:02;;;;;;;7.80;4.13;;;;;;;;;;4919417;29;20392;-74
2022/08/24 10:28:31;;;;;;;8.15;4.70;;;;;;;;;;4936753;29;20122;-71
2022/08/24 10:31:03;;;;;;;13.52;5.43;;;;;;;;;;4919539;29;20035;-71
2022/08/24 10:33:48;;;;;;;11.50;6.20;;;;;;;;;;4919622;29;20126;-76
2022/08/24 10:36:14;;;;;;;10.32;5.68;;;;;;;;;;4936420;29;20031;-73
2022/08/24 10:41:42;;;;;;;10.45;6.25;;;;;;;;;;4936636;29;20055;-71
2022/08/24 10:44:09;;;;;;;9.60;5.72;;;;;;;;;;4919227;29;20028;-73
2022/08/24 10:46:38;;;;;;;8.15;5.10;;;;;;;;;;4919300;29;20126;-77
2022/08/24 10:49:24;;;;;;;10.00;5.63;;;;;;;;;;4919831;29;20075;-73
2022/08/24 10:51:53;;;;;;;9.30;6.03;;;;;;;;;;4919036;29;20111;-73
2022/08/24 10:54:20;;;;;;;8.95;5.47;;;;;;;;;;4919167;29;20031;-72
2022/08/24 10:57:12;;;;;;;13.00;6.07;;;;;;;;;;4936591;29;20486;-70
2022/08/24 10:59:39;;;;;;;9.98;5.65;;;;;;;;;;4933577;29;20411;-74
2022/08/24 11:02:28;;;;;;;10.43;5.95;;;;;;;;;;4919245;29;20095;-77
2022/08/24 11:04:59;;;;;;;9.18;5.82;;;;;;;;;;4916071;29;20137;-76
2022/08/24 11:07:25;;;;;;;9.85;5.72;;;;;;;;;;4900339;29;20590;-73
2022/08/24 11:09:55;;;;;;;10.73;6.15;;;;;;;;;;4900079;29;20024;-75
2022/08/24 11:12:30;;;;;;;11.13;6.25;;;;;;;;;;4917001;29;20105;-74
2022/08/24 11:14:58;;;;;;;13.52;6.07;;;;;;;;;;4899888;29;20478;-76
2022/08/24 11:17:26;;;;;;;11.15;6.38;;;;;;;;;;4918791;29;20039;-74
2022/08/24 11:19:52;;;;;;;10.30;5.97;;;;;;;;;;4920561;29;20034;-79
2022/08/24 11:22:21;;;;;;;10.65;5.97;;;;;;;;;;4935564;29;20079;-75
2022/08/24 11:24:48;;;;;;;11.73;5.82;;;;;;;;;;4918871;29;20030;-75
2022/08/24 11:27:17;;;;;;;10.75;6.60;;;;;;;;;;4919346;29;20011;-73
2022/08/24 11:29:53;;;;;;;13.80;6.55;;;;;;;;;;4915191;29;20052;-75
2022/08/24 11:32:28;;;;;;;11.00;5.63;;;;;;;;;;4927497;29;20451;-75
2022/08/24 11:34:54;;;;;;;9.35;5.82;;;;;;;;;;4919277;29;20392;-74
2022/08/24 11:37:30;;;;;;;12.07;6.35;;;;;;;;;;4921876;29;20422;-75
2022/08/24 11:39:56;;;;;;;10.32;5.75;;;;;;;;;;4922625;29;20024;-78
2022/08/24 11:42:22;;;;;;;10.25;6.50;;;;;;;;;;4923006;29;20118;-76
2022/08/24 11:44:48;;;;;;;12.60;5.80;;;;;;;;;;4923383;29;20024;-75
2022/08/24 11:47:14;;;;;;;11.32;5.80;;;;;;;;;;4922732;29;20462;-75
2022/08/24 11:49:53;;;;;;;10.70;5.85;;;;;;;;;;4939665;29;20026;-76
2022/08/24 11:52:19;;;;;;;12.43;6.18;;;;;;;;;;4938838;29;20028;-73
2022/08/24 11:54:51;;;;;;;9.80;5.80;;;;;;;;;;4940846;29;20094;-75
2022/08/24 11:57:20;;;;;;;9.38;5.82;;;;;;;;;;4922074;29;20388;-73
2022/08/24 11:59:47;;;;;;;11.15;6.35;;;;;;;;;;4922155;29;20149;-75
2022/08/24 12:02:22;;;;;;;9.25;5.53;;;;;;;;;;4922054;29;20035;-73
2022/08/24 12:04:48;;;;;;;9.07;5.53;;;;;;;;;;4920850;29;20047;-73
2022/08/24 12:07:20;;;;;;;9.80;5.78;;;;;;;;;;4923034;29;20031;-73
2022/08/24 12:09:52;;;;;;;11.15;5.82;;;;;;;;;;4922400;29;20027;-74
2022/08/24 12:12:25;;;;;;;15.07;6.60;;;;;;;;;;4939377;29;20028;-75
2022/08/24 12:15:02;;;;;;;16.38;6.05;;;;;;;;;;4922051;29;20031;-77
2022/08/24 12:17:34;;;;;;;12.57;6.07;;;;;;;;;;4939527;29;20397;-75
2022/08/24 12:20:19;;;;;;;12.95;5.85;;;;;;;;;;4921981;29;20122;-75
2022/08/24 12:22:45;;;;;;;10.63;6.00;;;;;;;;;;4921819;29;20047;-73
2022/08/24 12:27:57;;;;;;;10.25;5.70;;;;;;;;;;4939276;29;20039;-76
2022/08/24 12:30:24;;;;;;;9.52;5.38;;;;;;;;;;4939578;29;20370;-72
2022/08/24 12:32:56;;;;;;;10.68;6.15;;;;;;;;;;4921793;29;20059;-73
2022/08/24 12:35:22;;;;;;;;;;;;;;;;;;4922460;29;20556;-76
2022/08/24 12:37:55;;;;;;;9.48;5.88;;;;;;;;;;4922418;29;19978;-73
2022/08/24 12:40:46;;;;;;;8.80;5.30;;;;;;;;;;4939019;29;20024;-75
2022/08/24 12:43:35;;;;;;;12.05;6.13;;;;;;;;;;4906622;29;20067;-74
2022/08/24 12:46:02;;;;;;;9.50;5.63;;;;;;;;;;4938732;29;20493;-73
2022/08/24 12:48:43;;;;;;;10.63;5.85;;;;;;;;;;4921091;29;20113;-73
2022/08/24 12:51:29;;;;;;;10.77;5.32;;;;;;;;;;4939214;29;20039;-78
2022/08/24 12:54:04;;;;;;;11.70;5.85;;;;;;;;;;4938890;29;20027;-73
2022/08/24 12:56:49;;;;;;;12.32;6.35;;;;;;;;;;4921410;29;20039;-73
2022/08/24 12:59:18;;;;;;;12.25;6.63;;;;;;;;;;4920874;29;20083;-73
2022/08/24 13:02:05;;;;;;;11.18;5.88;;;;;;;;;;4940855;29;20048;-72
2022/08/24 13:04:37;;;;;;;12.30;5.90;;;;;;;;;;4931918;29;20086;-73
2022/08/24 13:07:03;;;;;;;;;;;;;;;;;;4934537;29;20046;-72
2022/08/24 13:09:29;;;;;;;8.68;5.97;;;;;;;;;;4957911;29;20348;-73
2022/08/24 13:11:57;;;;;;;10.57;5.70;;;;;;;;;;4957277;29;20036;-75
2022/08/24 13:14:25;;;;;;;8.75;5.68;;;;;;;;;;4957171;29;20050;-75
2022/08/24 13:16:57;;;;;;;11.00;5.90;;;;;;;;;;4919396;29;20032;-72
2022/08/24 13:19:23;;;;;;;9.80;5.55;;;;;;;;;;4920979;29;20120;-71
2022/08/24 13:21:58;;;;;;;10.75;5.18;;;;;;;;;;4938093;29;20028;-73
2022/08/24 13:24:27;;;;;;;11.23;5.22;;;;;;;;;;4938184;29;20024;-73
2022/08/24 13:26:57;;;;;;;12.35;5.80;;;;;;;;;;4937927;29;20032;-73
2022/08/24 13:29:28;;;;;;;9.93;4.88;;;;;;;;;;4937827;29;20553;-73
2022/08/24 13:31:58;;;;;;;11.95;5.47;;;;;;;;;;4938115;29;20103;-73
2022/08/24 13:34:39;;;;;;;13.35;6.05;;;;;;;;;;4937716;29;20038;-73
2022/08/24 13:37:09;;;;;;;11.85;6.07;;;;;;;;;;4937385;29;20030;-71
2022/08/24 13:39:54;;;;;;;17.55;6.10;;;;;;;;;;4920604;29;20036;-71
2022/08/24 13:52:32;;;;;;;10.07;6.25;;;;;;;;;;5104838;23;20044;-75
2022/08/24 13:55:11;;;;;;;11.80;6.65;;;;;;;;;;4896484;29;20500;-72
2022/08/24 13:57:43;;;;;;;12.20;6.78;;;;;;;;;;4915441;29;20042;-72
2022/08/24 14:00:28;;;;;;;14.75;6.15;;;;;;;;;;4911652;29;20036;-73
2022/08/24 14:03:03;;;;;;;8.82;5.53;;;;;;;;;;4918340;29;20370;-75
2022/08/24 14:05:48;;;;;;;12.32;6.45;;;;;;;;;;4918296;29;20412;-75
2022/08/24 14:08:33;;;;;;;12.23;6.13;;;;;;;;;;4918305;29;20021;-75
2022/08/24 14:11:16;;;;;;;18.02;6.78;;;;;;;;;;4916542;29;20473;-76
2022/08/24 14:13:53;;;;;;;12.88;6.13;;;;;;;;;;4917930;29;20063;-76
2022/08/24 14:19:19;;;;;;;12.68;6.30;;;;;;;;;;4917783;29;20449;-75
2022/08/24 14:21:54;;;;;;;11.63;6.10;;;;;;;;;;4900340;29;20036;-77
2022/08/24 14:24:39;;;;;;;11.75;5.70;;;;;;;;;;4900888;29;20028;-78
2022/08/24 14:27:05;;;;;;;18.40;6.82;;;;;;;;;;4900333;29;20508;-79
2022/08/24 14:29:43;;;;;;;13.65;6.68;;;;;;;;;;4900654;29;20024;-74
2022/08/24 14:32:10;;;;;;;12.18;5.95;;;;;;;;;;4892822;29;20485;-73
2022/08/24 14:34:47;;;;;;;10.90;5.32;;;;;;;;;;4896556;29;20035;-74
2022/08/24 14:37:15;;;;;;;9.40;6.15;;;;;;;;;;4900229;29;20032;-73
2022/08/24 14:39:51;;;;;;;11.27;5.40;;;;;;;;;;4900691;29;20101;-80
2022/08/24 14:42:17;;;;;;;13.48;5.60;;;;;;;;;;4900661;29;20065;-76
2022/08/24 14:44:55;;;;;;;12.10;6.10;;;;;;;;;;4917599;29;20032;-73
2022/08/24 14:47:39;;;;;;;12.45;6.70;;;;;;;;;;4917504;29;20473;-82
2022/08/24 14:50:05;;;;;;;11.63;6.28;;;;;;;;;;4900416;29;20036;-71
2022/08/24 14:52:51;;;;;;;13.60;6.47;;;;;;;;;;4916274;29;20052;-74
2022/08/24 14:55:17;;;;;;;12.75;6.82;;;;;;;;;;4900341;29;20028;-75
2022/08/24 14:57:44;;;;;;;13.52;7.20;;;;;;;;;;4916020;29;20036;-74
2022/08/24 15:00:13;;;;;;;11.52;6.70;;;;;;;;;;4916242;29;20024;-73
2022/08/24 15:02:51;;;;;;;11.05;6.18;;;;;;;;;;4917567;29;20051;-75
2022/08/24 15:05:24;;;;;;;15.32;7.35;;;;;;;;;;4916115;29;20035;-73
2022/08/24 15:07:50;;;;;;;;;;;;;;;;;;4916245;29;20429;-74
2022/08/24 15:10:22;;;;;;;20.02;7.80;;;;;;;;;;4917447;29;19907;-75
2022/08/24 15:12:52;;;;;;;18.20;7.43;;;;;;;;;;4915985;29;20052;-74
2022/08/24 15:15:22;;;;;;;14.57;7.30;;;;;;;;;;4915927;29;20064;-75